Time;durP1;ratioP1;P1;durP2;ratioP2;P2;SDS_P1;SDS_P2;PMS_P1;PMS_P2;Temp;Humidity;BMP_temperature;BMP_pressure;BME280_temperature;BME280_humidity;BME280_pressure;Samples;Min_cycle;Max_cycle;Signal;HPM_P1;HPM_P2
2022/05/30 00:02:20;;;;;;;;;23.00;21.00;;;;;22.28;48.89;100384.70;110202;1265;23362;-49
2022/05/30 00:04:48;;;;;;;;;20.00;17.33;;;;;22.28;48.84;100382.15;110261;1264;21344;-48
2022/05/30 00:07:15;;;;;;;;;21.67;20.33;;;;;22.27;49.06;100382.05;110298;1264;19321;-48
2022/05/30 00:09:42;;;;;;;;;21.00;19.00;;;;;22.27;48.95;100383.36;110257;1264;19821;-48
2022/05/30 00:12:09;;;;;;;;;21.00;18.00;;;;;22.27;48.84;100380.84;110196;1264;21115;-45
2022/05/30 00:14:36;;;;;;;;;21.67;18.67;;;;;22.26;48.86;100378.98;110233;1264;23460;-49
2022/05/30 00:17:04;;;;;;;;;20.00;18.00;;;;;22.27;48.81;100378.69;110185;1264;19729;-55
2022/05/30 00:19:31;;;;;;;;;22.00;20.00;;;;;22.27;48.89;100376.48;110304;1264;21800;-49
2022/05/30 00:21:58;;;;;;;;;25.33;18.67;;;;;22.26;48.85;100378.02;110217;1264;21065;-48
2022/05/30 00:24:26;;;;;;;;;18.67;18.67;;;;;22.26;48.67;100378.56;110221;1264;19425;-48
2022/05/30 00:26:53;;;;;;;;;26.67;21.67;;;;;22.27;48.79;100377.39;110240;1264;21730;-48
2022/05/30 00:29:20;;;;;;;;;23.00;22.00;;;;;22.26;48.80;100374.02;110278;1263;19560;-48
2022/05/30 00:31:48;;;;;;;;;21.00;18.00;;;;;22.27;48.77;100376.73;110282;1264;21127;-48
2022/05/30 00:34:15;;;;;;;;;21.33;18.67;;;;;22.27;48.49;100382.47;110301;1264;20298;-48
2022/05/30 00:36:43;;;;;;;;;24.00;20.00;;;;;22.26;48.46;100381.29;110254;1264;19434;-48
2022/05/30 00:39:11;;;;;;;;;22.67;20.00;;;;;22.27;48.49;100377.27;110249;1264;19550;-48
2022/05/30 00:41:38;;;;;;;;;23.33;21.67;;;;;22.27;48.52;100379.02;110150;1264;20479;-47
2022/05/30 00:44:05;;;;;;;;;18.67;17.67;;;;;22.27;48.33;100381.59;110249;1264;19212;-48
2022/05/30 00:46:32;;;;;;;;;21.00;20.00;;;;;22.26;48.34;100382.39;110308;1264;19697;-48
2022/05/30 00:49:00;;;;;;;;;24.00;21.00;;;;;22.26;48.37;100379.86;110271;1263;23037;-48
2022/05/30 00:51:27;;;;;;;;;20.33;18.00;;;;;22.25;48.40;100380.16;110269;1264;19325;-48
2022/05/30 00:53:54;;;;;;;;;18.00;17.00;;;;;22.25;48.28;100379.44;110256;1264;19914;-51
2022/05/30 00:56:21;;;;;;;;;19.33;17.33;;;;;22.25;48.41;100378.44;110275;1264;23128;-47
2022/05/30 00:58:48;;;;;;;;;22.00;21.00;;;;;22.24;48.25;100373.76;110232;1264;20095;-48
2022/05/30 01:01:16;;;;;;;;;20.00;16.67;;;;;22.24;48.30;100375.74;110265;1264;22036;-48
2022/05/30 01:06:34;;;;;;;;;24.33;18.67;;;;;22.24;48.33;100375.84;110275;1264;19362;-49
2022/05/30 01:09:01;;;;;;;;;17.50;17.00;;;;;22.23;48.17;100377.35;110264;1264;19782;-45
2022/05/30 01:11:28;;;;;;;;;21.00;18.00;;;;;22.22;48.13;100374.71;110137;1264;20218;-46
2022/05/30 01:13:55;;;;;;;;;18.33;16.67;;;;;22.23;48.23;100370.50;110196;1264;19252;-48
2022/05/30 01:16:23;;;;;;;;;20.00;17.00;;;;;22.23;47.93;100368.45;110225;1263;19643;-45
2022/05/30 01:18:50;;;;;;;;;20.67;17.33;;;;;22.24;47.85;100368.02;110248;1263;22106;-45
2022/05/30 01:21:17;;;;;;;;;18.00;18.00;;;;;22.23;48.04;100369.73;110274;1264;23193;-46
2022/05/30 01:23:44;;;;;;;;;17.00;16.00;;;;;22.23;47.90;100366.26;110257;1264;20534;-48
2022/05/30 01:26:11;;;;;;;;;21.00;18.33;;;;;22.23;47.82;100363.02;110271;1264;22755;-48
2022/05/30 01:28:39;;;;;;;;;20.00;17.50;;;;;22.23;47.69;100359.01;110312;1264;19665;-48
2022/05/30 01:31:06;;;;;;;;;16.67;16.00;;;;;22.24;47.78;100357.45;110301;1263;23774;-48
2022/05/30 01:33:33;;;;;;;;;20.00;16.00;;;;;22.23;47.77;100354.59;110260;1264;20331;-48
2022/05/30 01:36:01;;;;;;;;;18.67;16.67;;;;;22.23;47.68;100356.44;110191;1263;19129;-49
2022/05/30 01:38:28;;;;;;;;;15.00;15.00;;;;;22.23;47.76;100352.61;110267;1264;23309;-49
2022/05/30 01:40:55;;;;;;;;;17.00;16.00;;;;;22.23;47.72;100351.10;110159;1264;20343;-49
2022/05/30 01:43:23;;;;;;;;;18.00;17.00;;;;;22.24;47.89;100350.52;110364;1264;19395;-47
2022/05/30 01:45:50;;;;;;;;;20.00;17.00;;;;;22.23;47.58;100347.45;110269;1264;23145;-47
2022/05/30 01:48:17;;;;;;;;;17.00;16.00;;;;;22.25;47.73;100348.91;110267;1264;20333;-47
2022/05/30 01:50:45;;;;;;;;;18.33;16.33;;;;;22.24;47.66;100352.44;110296;1264;19259;-48
2022/05/30 01:53:12;;;;;;;;;18.67;17.00;;;;;22.24;47.63;100350.33;110288;1262;19761;-47
2022/05/30 01:55:39;;;;;;;;;17.00;16.00;;;;;22.23;47.59;100352.20;110297;1263;20376;-49
2022/05/30 01:58:07;;;;;;;;;16.50;16.50;;;;;22.23;47.69;100355.21;110327;1264;19277;-47
2022/05/30 02:00:34;;;;;;;;;17.00;16.00;;;;;22.22;47.56;100350.55;110295;1264;23802;-48
2022/05/30 02:03:01;;;;;;;;;20.67;19.33;;;;;22.22;47.50;100348.15;110255;1264;20340;-48
2022/05/30 02:05:30;;;;;;;;;18.67;17.67;;;;;22.22;47.36;100343.45;110276;1264;19577;-48
2022/05/30 02:07:58;;;;;;;;;16.00;14.00;;;;;22.21;47.61;100337.73;110191;1264;19677;-48
2022/05/30 02:10:25;;;;;;;;;17.33;17.00;;;;;22.21;47.45;100333.90;110273;1264;20362;-47
2022/05/30 02:12:52;;;;;;;;;19.00;17.00;;;;;22.21;47.44;100333.36;110233;1264;20179;-48
2022/05/30 02:15:20;;;;;;;;;18.00;17.00;;;;;22.20;47.62;100335.13;110242;1264;19795;-47
2022/05/30 02:17:47;;;;;;;;;16.00;16.00;;;;;22.20;47.38;100329.66;110255;1264;22282;-48
2022/05/30 02:20:14;;;;;;;;;18.50;16.50;;;;;22.21;47.29;100326.85;110243;1264;19243;-48
2022/05/30 02:22:41;;;;;;;;;16.00;14.00;;;;;22.20;47.50;100327.86;110281;1264;23155;-48
2022/05/30 02:25:08;;;;;;;;;17.33;17.00;;;;;22.21;47.29;100326.55;110249;1265;21157;-48
2022/05/30 02:27:36;;;;;;;;;18.00;16.00;;;;;22.20;47.55;100325.51;110207;1263;23247;-47
2022/05/30 02:30:03;;;;;;;;;16.00;14.00;;;;;22.20;47.47;100325.34;110248;1264;19560;-48
2022/05/30 02:32:30;;;;;;;;;16.67;16.67;;;;;22.21;47.49;100322.70;110240;1264;20618;-49
2022/05/30 02:37:42;;;;;;;;;16.33;16.00;;;;;22.21;47.38;100323.19;110259;1264;23065;-47
2022/05/30 02:40:10;;;;;;;;;17.00;14.00;;;;;22.21;47.27;100321.39;110288;1264;20323;-46
2022/05/30 02:42:37;;;;;;;;;17.00;16.00;;;;;22.21;47.24;100322.77;110268;1264;24657;-49
2022/05/30 02:45:04;;;;;;;;;17.33;16.00;;;;;22.21;47.24;100319.59;110260;1264;19594;-49
2022/05/30 02:47:31;;;;;;;;;17.00;16.00;;;;;22.21;47.18;100315.98;110260;1264;21537;-47
2022/05/30 02:49:58;;;;;;;;;16.67;16.67;;;;;22.20;47.15;100313.54;110287;1264;19898;-48
2022/05/30 02:52:26;;;;;;;;;16.50;16.50;;;;;22.19;47.25;100316.90;110242;1264;19396;-48
2022/05/30 02:54:53;;;;;;;;;17.00;16.00;;;;;22.20;47.24;100311.52;110212;1264;23809;-48
2022/05/30 02:57:20;;;;;;;;;17.33;16.00;;;;;22.20;47.34;100312.10;110260;1264;19536;-49
2022/05/30 02:59:47;;;;;;;;;16.00;15.00;;;;;22.20;47.19;100308.12;110236;1264;19810;-48
2022/05/30 03:02:14;;;;;;;;;18.00;16.00;;;;;22.19;47.15;100305.85;110246;1264;21866;-49
2022/05/30 03:04:42;;;;;;;;;16.33;13.33;;;;;22.20;47.11;100305.14;110251;1264;19431;-48
2022/05/30 03:07:09;;;;;;;;;18.00;16.00;;;;;22.19;47.14;100301.81;110293;1264;22785;-48
2022/05/30 03:09:36;;;;;;;;;15.67;15.33;;;;;22.19;47.06;100298.29;110251;1264;20263;-47
2022/05/30 03:12:03;;;;;;;;;17.00;16.00;;;;;22.20;47.09;100298.63;110250;1264;19264;-49
2022/05/30 03:14:30;;;;;;;;;13.33;13.00;;;;;22.19;47.09;100297.20;110287;1264;19692;-50
2022/05/30 03:16:58;;;;;;;;;13.67;13.33;;;;;22.20;47.19;100297.36;110256;1263;20364;-48
2022/05/30 03:19:25;;;;;;;;;15.33;14.00;;;;;22.19;47.18;100296.77;110306;1264;19608;-47
2022/05/30 03:21:53;;;;;;;;;17.00;16.00;;;;;22.19;47.09;100298.95;110253;1264;21080;-49
2022/05/30 03:24:20;;;;;;;;;19.33;16.67;;;;;22.19;46.95;100304.05;110255;1264;22911;-49
2022/05/30 03:26:47;;;;;;;;;15.33;14.00;;;;;22.19;47.14;100298.80;110299;1264;19338;-52
2022/05/30 03:29:14;;;;;;;;;17.00;14.00;;;;;22.19;47.07;100296.56;110274;1264;22025;-51
2022/05/30 03:31:41;;;;;;;;;13.00;12.00;;;;;22.19;47.09;100297.45;110271;1264;20334;-50
2022/05/30 03:34:09;;;;;;;;;17.00;16.00;;;;;22.19;47.12;100295.05;110290;1264;19323;-45
2022/05/30 03:36:36;;;;;;;;;17.00;17.00;;;;;22.20;47.02;100299.55;110249;1263;23091;-48
2022/05/30 03:39:03;;;;;;;;;17.67;14.00;;;;;22.19;47.14;100294.72;110286;1264;20279;-47
2022/05/30 03:41:31;;;;;;;;;13.00;13.00;;;;;22.19;47.13;100297.03;110281;1264;19299;-49
2022/05/30 03:44:00;;;;;;;;;16.67;14.00;;;;;22.19;47.16;100296.40;110293;1263;19694;-48
2022/05/30 03:46:27;;;;;;;;;13.67;13.33;;;;;22.18;47.19;100295.75;110300;1264;20992;-49
2022/05/30 03:48:55;;;;;;;;;14.67;14.00;;;;;22.17;46.82;100294.77;110286;1264;19176;-48
2022/05/30 03:51:22;;;;;;;;;14.00;13.50;;;;;22.18;46.93;100295.25;110300;1262;19682;-49
2022/05/30 03:53:49;;;;;;;;;13.50;13.50;;;;;22.19;46.83;100292.08;110285;1264;20395;-48
2022/05/30 03:56:16;;;;;;;;;17.00;17.00;;;;;22.18;46.92;100301.34;110276;1264;21560;-49
2022/05/30 03:58:44;;;;;;;;;16.00;14.00;;;;;22.18;46.95;100299.58;110283;1262;19553;-49
2022/05/30 04:01:11;;;;;;;;;16.33;15.33;;;;;22.18;46.91;100301.44;110292;1263;20524;-47
2022/05/30 04:03:39;;;;;;;;;16.33;16.33;;;;;22.18;46.93;100308.91;110258;1264;19168;-48
2022/05/30 04:06:07;;;;;;;;;14.00;14.00;;;;;22.17;46.86;100310.58;110271;1264;19589;-46
2022/05/30 04:08:35;;;;;;;;;17.00;16.00;;;;;22.17;46.97;100310.06;110245;1262;20267;-48
2022/05/30 04:11:02;;;;;;;;;16.33;14.00;;;;;22.18;46.96;100310.67;110272;1264;19260;-47
2022/05/30 04:13:29;;;;;;;;;16.33;16.33;;;;;22.19;46.68;100308.95;110310;1264;20083;-48
2022/05/30 04:15:56;;;;;;;;;15.33;13.67;;;;;22.19;46.93;100302.95;110274;1263;20433;-48
2022/05/30 04:18:24;;;;;;;;;17.33;16.00;;;;;22.19;46.90;100307.15;110145;1263;19386;-48
2022/05/30 04:20:51;;;;;;;;;16.50;15.00;;;;;22.18;46.88;100308.61;110246;1264;19672;-48
2022/05/30 04:23:18;;;;;;;;;17.00;16.00;;;;;22.19;46.95;100310.05;110276;1264;23075;-48
2022/05/30 04:25:45;;;;;;;;;14.67;14.67;;;;;22.18;46.73;100308.91;110287;1264;19241;-48
2022/05/30 04:28:12;;;;;;;;;16.50;16.00;;;;;22.18;46.82;100310.33;110305;1264;23117;-49
2022/05/30 04:30:40;;;;;;;;;17.00;17.00;;;;;22.18;46.85;100316.54;110273;1264;20283;-47
2022/05/30 04:33:07;;;;;;;;;17.00;16.00;;;;;22.18;46.79;100316.88;110273;1264;19435;-49
2022/05/30 04:35:34;;;;;;;;;17.33;16.33;;;;;22.17;46.71;100318.11;110274;1264;19559;-47
2022/05/30 04:38:01;;;;;;;;;17.00;14.00;;;;;22.17;46.88;100320.81;110266;1262;21765;-48
2022/05/30 04:40:29;;;;;;;;;16.00;14.00;;;;;22.17;46.91;100321.73;110253;1264;19218;-48
2022/05/30 04:42:57;;;;;;;;;17.00;16.67;;;;;22.17;46.82;100322.11;110258;1262;19926;-48
2022/05/30 04:45:24;;;;;;;;;18.00;17.00;;;;;22.17;46.92;100318.45;110183;1262;20385;-51
2022/05/30 04:47:52;;;;;;;;;13.67;13.00;;;;;22.17;46.85;100315.31;110245;1264;19399;-47
2022/05/30 04:50:19;;;;;;;;;16.00;13.00;;;;;22.18;46.78;100318.14;110266;1264;19512;-49
2022/05/30 04:52:46;;;;;;;;;20.00;17.00;;;;;22.18;46.61;100321.21;110291;1263;20649;-49
2022/05/30 04:55:14;;;;;;;;;20.00;18.00;;;;;22.19;46.61;100320.42;110295;1264;22630;-48
2022/05/30 04:57:42;;;;;;;;;14.00;14.00;;;;;22.19;46.66;100323.52;110308;1264;19653;-50
2022/05/30 05:00:09;;;;;;;;;15.67;15.33;;;;;22.20;46.61;100318.70;110154;1262;20486;-48
2022/05/30 05:02:36;;;;;;;;;14.67;14.00;;;;;22.20;46.72;100320.25;110233;1264;19477;-48
2022/05/30 05:05:04;;;;;;;;;17.33;16.00;;;;;22.21;46.65;100318.74;110251;1264;19708;-52
2022/05/30 05:07:31;;;;;;;;;16.67;16.67;;;;;22.22;46.66;100327.77;110247;1264;20357;-47
2022/05/30 05:09:58;;;;;;;;;17.00;16.00;;;;;22.22;46.56;100320.89;110236;1264;19297;-47
2022/05/30 05:12:25;;;;;;;;;20.50;17.00;;;;;22.25;46.64;100321.77;110225;1263;19863;-47
2022/05/30 05:14:53;;;;;;;;;16.00;16.00;;;;;22.27;46.85;100318.55;110243;1264;21691;-47
2022/05/30 05:17:21;;;;;;;;;18.33;17.00;;;;;22.30;46.85;100317.11;110181;1264;22432;-48
2022/05/30 05:19:48;;;;;;;;;20.00;16.00;;;;;22.31;47.15;100312.88;110263;1264;19543;-48
2022/05/30 05:22:16;;;;;;;;;16.00;14.00;;;;;22.33;47.25;100318.77;110259;1264;23102;-48
2022/05/30 05:24:43;;;;;;;;;21.00;16.00;;;;;22.37;48.46;100319.32;110233;1264;19528;-49
2022/05/30 05:27:10;;;;;;;;;17.00;17.00;;;;;22.39;48.26;100320.12;110243;1263;19886;-50
2022/05/30 05:29:37;;;;;;;;;18.67;17.33;;;;;22.37;48.19;100323.81;110237;1264;23594;-49
2022/05/30 05:32:05;;;;;;;;;15.33;15.33;;;;;22.35;48.45;100327.42;110246;1264;20903;-47
2022/05/30 05:34:32;;;;;;;;;21.00;19.00;;;;;22.29;48.41;100324.32;110319;1264;19613;-49
2022/05/30 05:36:59;;;;;;;;;18.00;17.67;;;;;22.25;48.27;100328.57;110269;1264;21644;-48
2022/05/30 05:39:27;;;;;;;;;20.33;18.67;;;;;22.19;47.85;100327.43;110242;1264;19319;-51
2022/05/30 05:41:54;;;;;;;;;22.00;22.00;;;;;22.17;47.83;100325.39;110018;1264;271203;-48
2022/05/30 05:44:21;;;;;;;;;30.00;26.00;;;;;22.13;47.92;100316.80;110230;1264;20433;-48
2022/05/30 05:46:48;;;;;;;;;27.67;26.00;;;;;22.10;47.55;100320.54;110232;1264;22611;-47
2022/05/30 05:49:15;;;;;;;;;24.33;21.00;;;;;22.08;47.74;100316.56;110301;1264;21193;-49
2022/05/30 05:51:43;;;;;;;;;21.00;21.00;;;;;22.10;47.69;100316.21;110062;1264;21365;-48
2022/05/30 05:54:10;;;;;;;;;28.00;25.33;;;;;22.10;47.30;100312.86;110211;1262;19314;-49
2022/05/30 05:56:37;;;;;;;;;23.67;22.33;;;;;22.05;47.39;100311.02;110143;1262;19563;-56
2022/05/30 05:59:04;;;;;;;;;25.67;22.00;;;;;22.06;47.43;100309.91;110202;1261;21704;-48
2022/05/30 06:01:32;;;;;;;;;22.00;21.00;;;;;22.10;47.03;100312.02;110324;1264;19394;-48
2022/05/30 06:03:59;;;;;;;;;22.00;20.67;;;;;22.10;47.19;100313.39;110275;1264;19618;-48
2022/05/30 06:06:26;;;;;;;;;28.67;23.67;;;;;22.09;47.17;100313.83;110227;1264;20169;-48
2022/05/30 06:08:54;;;;;;;;;24.00;22.67;;;;;22.10;47.10;100312.48;110219;1264;19272;-49
2022/05/30 06:11:21;;;;;;;;;25.67;24.67;;;;;22.11;46.95;100312.44;110304;1264;19675;-52
2022/05/30 06:13:48;;;;;;;;;25.00;24.00;;;;;22.10;47.00;100310.75;110226;1264;20922;-52
2022/05/30 06:16:16;;;;;;;;;21.33;21.00;;;;;22.04;46.82;100309.99;110241;1263;24147;-50
2022/05/30 06:18:43;;;;;;;;;25.00;22.50;;;;;22.01;46.89;100308.59;110187;1262;19602;-49
2022/05/30 06:21:10;;;;;;;;;22.50;21.50;;;;;21.99;46.81;100306.20;110177;1264;20326;-49
2022/05/30 06:23:37;;;;;;;;;21.00;18.00;;;;;22.00;46.79;100301.23;110137;1263;23816;-49
2022/05/30 06:26:04;;;;;;;;;21.33;21.00;;;;;22.07;46.66;100304.08;110268;1263;19645;-49
2022/05/30 06:28:32;;;;;;;;;20.00;20.00;;;;;22.11;46.45;100303.74;110215;1263;21524;-48
2022/05/30 06:30:59;;;;;;;;;20.50;18.00;;;;;22.11;46.80;100302.98;110116;1264;19548;-48
2022/05/30 06:33:26;;;;;;;;;21.00;20.00;;;;;22.14;46.81;100305.01;110237;1264;20906;-50
2022/05/30 06:35:54;;;;;;;;;21.00;19.67;;;;;22.20;46.70;100304.63;110243;1264;20413;-49
2022/05/30 06:38:21;;;;;;;;;20.67;20.00;;;;;22.23;46.48;100306.59;110169;1264;19593;-50
2022/05/30 06:40:48;;;;;;;;;20.33;19.67;;;;;22.27;46.84;100310.27;110225;1264;19832;-49
2022/05/30 06:43:15;;;;;;;;;17.00;17.00;;;;;22.29;46.70;100309.20;110264;1263;20328;-47
2022/05/30 06:45:43;;;;;;;;;19.33;17.00;;;;;22.30;46.81;100306.91;110258;1264;19294;-48
2022/05/30 06:48:10;;;;;;;;;19.33;19.33;;;;;22.33;46.66;100306.38;110269;1264;20935;-49
2022/05/30 06:50:37;;;;;;;;;17.00;16.00;;;;;22.34;46.68;100308.73;110224;1264;20405;-49
2022/05/30 06:53:04;;;;;;;;;18.67;18.67;;;;;22.35;46.43;100312.78;110049;1262;19300;-48
2022/05/30 06:55:31;;;;;;;;;21.00;21.00;;;;;22.31;46.20;100307.88;110043;1262;26883;-48
2022/05/30 06:58:14;;;;;;;;;20.33;18.00;;;;;22.26;45.83;100307.63;110193;1262;20276;-48
2022/05/30 07:00:41;;;;;;;;;19.00;17.00;;;;;22.26;46.15;100307.79;110277;1264;22001;-49
2022/05/30 07:03:08;;;;;;;;;20.00;17.00;;;;;22.30;46.04;100303.50;110245;1263;19668;-48
2022/05/30 07:05:36;;;;;;;;;21.50;20.50;;;;;22.36;45.96;100304.00;110221;1262;23763;-49
2022/05/30 07:08:03;;;;;;;;;18.67;18.67;;;;;22.38;45.82;100301.84;110267;1264;19345;-49
2022/05/30 07:10:31;;;;;;;;;24.33;21.67;;;;;22.35;46.04;100299.42;110202;1262;19841;-49
2022/05/30 07:12:58;;;;;;;;;21.00;21.00;;;;;22.29;45.86;100300.88;110259;1262;20388;-48
2022/05/30 07:15:25;;;;;;;;;29.00;25.00;;;;;22.29;46.26;100295.63;110257;1262;19331;-48
2022/05/30 07:17:53;;;;;;;;;29.50;25.00;;;;;22.29;46.66;100292.18;110295;1263;19702;-49
2022/05/30 07:20:20;;;;;;;;;26.00;23.67;;;;;22.26;46.38;100295.28;110268;1263;20279;-48
2022/05/30 07:22:47;;;;;;;;;30.67;27.00;;;;;22.28;46.57;100296.33;110259;1264;19235;-51
2022/05/30 07:25:14;;;;;;;;;30.33;26.67;;;;;22.27;46.64;100289.77;110276;1263;19723;-49
2022/05/30 07:27:41;;;;;;;;;33.67;30.00;;;;;22.27;46.78;100294.19;110281;1262;23238;-49
2022/05/30 07:30:09;;;;;;;;;29.50;27.00;;;;;22.26;46.36;100294.52;110253;1264;19237;-49
2022/05/30 07:32:36;;;;;;;;;25.33;24.67;;;;;22.27;46.37;100289.10;110266;1263;19684;-49
2022/05/30 07:35:03;;;;;;;;;36.00;31.00;;;;;22.26;46.48;100288.09;110275;1264;20387;-48
2022/05/30 07:37:30;;;;;;;;;28.00;25.00;;;;;22.26;46.47;100289.98;110270;1263;19276;-51
2022/05/30 07:39:58;;;;;;;;;29.67;28.00;;;;;22.26;46.50;100292.20;110253;1263;19547;-50
2022/05/30 07:42:25;;;;;;;;;29.00;26.67;;;;;22.26;46.37;100293.77;110249;1262;20444;-52
2022/05/30 07:44:52;;;;;;;;;28.67;25.33;;;;;22.27;46.51;100290.20;110237;1263;23080;-48
2022/05/30 07:47:20;;;;;;;;;22.00;20.00;;;;;22.24;46.23;100291.83;110247;1264;19598;-49
2022/05/30 07:49:48;;;;;;;;;26.33;25.00;;;;;22.22;46.38;100292.67;110273;1264;20264;-54
2022/05/30 07:52:15;;;;;;;;;31.33;28.00;;;;;22.25;46.88;100289.98;110262;1263;19474;-49
2022/05/30 07:54:43;;;;;;;;;30.50;28.50;;;;;22.29;46.66;100291.09;110175;1262;19886;-48
2022/05/30 07:57:11;;;;;;;;;29.33;26.33;;;;;22.31;46.63;100292.59;110289;1263;20421;-50
2022/05/30 07:59:39;;;;;;;;;27.33;26.00;;;;;22.33;46.81;100286.71;110260;1264;19288;-49
2022/05/30 08:02:06;;;;;;;;;30.00;29.00;;;;;22.31;47.01;100287.25;110268;1264;19754;-49
2022/05/30 08:04:33;;;;;;;;;28.00;26.00;;;;;22.31;47.10;100287.13;110312;1264;23495;-50
2022/05/30 08:07:00;;;;;;;;;25.00;23.50;;;;;22.28;47.09;100285.13;110286;1262;19241;-49
2022/05/30 08:09:27;;;;;;;;;25.33;24.67;;;;;22.25;47.00;100287.16;110264;1263;23388;-49
2022/05/30 08:11:55;;;;;;;;;20.33;18.67;;;;;22.21;46.38;100287.34;110258;1264;20291;-50
2022/05/30 08:14:22;;;;;;;;;18.67;17.67;;;;;22.17;46.08;100280.41;110238;1262;25394;-48
2022/05/30 08:16:49;;;;;;;;;20.33;18.67;;;;;22.13;45.68;100281.40;110250;1263;19595;-50
2022/05/30 08:19:16;;;;;;;;;22.00;19.33;;;;;22.08;46.28;100279.86;110242;1264;20262;-47
2022/05/30 08:21:44;;;;;;;;;21.33;18.00;;;;;22.09;46.36;100281.89;110072;1262;24185;-49
2022/05/30 08:24:11;;;;;;;;;17.00;17.00;;;;;22.10;46.44;100281.27;110240;1262;20882;-50
2022/05/30 08:26:38;;;;;;;;;18.67;18.67;;;;;22.14;46.25;100278.80;110231;1262;20350;-50
2022/05/30 08:29:05;;;;;;;;;16.00;15.33;;;;;22.13;46.21;100279.42;110167;1262;23565;-48
2022/05/30 08:31:33;;;;;;;;;17.00;15.00;;;;;22.11;46.11;100282.45;110294;1262;19570;-50
2022/05/30 08:34:00;;;;;;;;;17.67;17.33;;;;;22.14;46.01;100283.04;110206;1262;26309;-48
2022/05/30 08:36:27;;;;;;;;;12.67;12.67;;;;;22.15;45.81;100281.73;110208;1262;19318;-49
2022/05/30 08:41:46;;;;;;;;;13.00;13.00;;;;;22.14;45.62;100280.39;110198;1262;19693;-48
2022/05/30 08:41:51;;;;;;;;;15.00;14.00;;;;;22.14;45.50;100283.13;110224;1262;20848;-49
2022/05/30 08:44:18;;;;;;;;;13.00;13.00;;;;;22.17;45.76;100284.65;110203;1262;19402;-49
2022/05/30 08:46:46;;;;;;;;;16.67;14.00;;;;;22.16;45.38;100283.09;110224;1262;20249;-50
2022/05/30 08:49:14;;;;;;;;;13.00;13.00;;;;;22.16;45.10;100282.92;110234;1262;20411;-48
2022/05/30 08:51:41;;;;;;;;;16.00;14.00;;;;;22.11;44.78;100281.08;110191;1262;19282;-48
2022/05/30 08:54:08;;;;;;;;;12.00;10.00;;;;;22.10;44.90;100279.88;110250;1262;19704;-48
2022/05/30 08:56:36;;;;;;;;;12.00;10.00;;;;;22.08;44.52;100276.20;110070;1263;23732;-49
2022/05/30 08:59:03;;;;;;;;;9.67;9.67;;;;;22.10;44.33;100276.48;110120;1264;19127;-49
2022/05/30 09:01:31;;;;;;;;;12.33;12.33;;;;;22.10;44.39;100270.29;110325;1263;19383;-46
2022/05/30 09:04:09;;;;;;;;;12.00;12.00;;;;;22.10;44.45;100269.98;110160;1263;21295;-49
2022/05/30 09:06:36;;;;;;;;;11.33;9.67;;;;;22.10;44.38;100271.48;110289;1264;23829;-49
2022/05/30 09:09:03;;;;;;;;;13.33;13.33;;;;;22.08;44.11;100273.14;110297;1264;19681;-48
2022/05/30 09:11:31;;;;;;;;;11.33;10.67;;;;;22.08;44.02;100276.71;110251;1262;20578;-49
2022/05/30 09:13:58;;;;;;;;;12.00;10.67;;;;;22.10;43.74;100279.30;110266;1264;19116;-51
2022/05/30 09:16:25;;;;;;;;;11.33;10.67;;;;;22.12;43.57;100276.13;110211;1264;23318;-50
2022/05/30 09:18:53;;;;;;;;;12.00;10.00;;;;;22.16;43.53;100274.95;110244;1262;21366;-49
2022/05/30 09:21:20;;;;;;;;;12.00;12.00;;;;;22.15;43.65;100273.05;110283;1264;22836;-49
2022/05/30 09:23:47;;;;;;;;;12.67;12.00;;;;;22.16;43.50;100278.13;110191;1264;19557;-49
2022/05/30 09:26:16;;;;;;;;;24.50;20.50;;;;;22.18;43.76;100278.32;110180;1264;23442;-48
2022/05/30 09:28:43;;;;;;;;;29.00;28.00;;;;;22.18;43.61;100279.04;110300;1264;19294;-49
2022/05/30 09:31:10;;;;;;;;;19.67;18.67;;;;;22.13;43.14;100280.52;110285;1263;20049;-51
2022/05/30 09:33:38;;;;;;;;;14.00;14.00;;;;;22.09;42.74;100276.98;110261;1262;20251;-49
2022/05/30 09:36:05;;;;;;;;;15.33;13.00;;;;;22.06;42.42;100276.52;110281;1263;19315;-49
2022/05/30 09:38:32;;;;;;;;;14.00;13.50;;;;;22.04;42.06;100276.78;110261;1264;19622;-49
2022/05/30 09:41:00;;;;;;;;;12.33;12.33;;;;;22.01;41.93;100270.98;110247;1263;22963;-47
2022/05/30 09:43:27;;;;;;;;;12.67;12.00;;;;;22.00;41.38;100266.34;110330;1263;19329;-53
2022/05/30 09:45:54;;;;;;;;;14.00;13.00;;;;;21.98;41.32;100263.09;110254;1264;23792;-50
2022/05/30 09:48:22;;;;;;;;;14.00;13.00;;;;;21.98;41.48;100262.91;110275;1263;21662;-51
2022/05/30 09:50:49;;;;;;;;;12.67;12.33;;;;;21.98;41.53;100259.02;110262;1262;24045;-48
2022/05/30 09:53:17;;;;;;;;;12.50;12.00;;;;;21.98;41.43;100261.20;110255;1264;19659;-48
2022/05/30 09:55:44;;;;;;;;;13.00;12.67;;;;;21.98;41.23;100261.40;110146;1264;22944;-46
2022/05/30 09:58:11;;;;;;;;;16.00;13.33;;;;;21.98;41.40;100264.27;110215;1264;19339;-49
2022/05/30 10:00:39;;;;;;;;;14.00;13.00;;;;;21.98;41.09;100265.02;110280;1264;21140;-48
2022/05/30 10:03:07;;;;;;;;;12.00;12.00;;;;;21.97;41.54;100262.16;110259;1263;20256;-49
2022/05/30 10:05:34;;;;;;;;;17.00;12.33;;;;;21.97;41.33;100260.23;110279;1264;23602;-50
2022/05/30 10:08:01;;;;;;;;;14.00;13.00;;;;;21.97;41.60;100253.27;110292;1264;19637;-50
2022/05/30 10:10:29;;;;;;;;;11.33;10.00;;;;;22.00;41.08;100257.64;110303;1263;21709;-50
2022/05/30 10:12:56;;;;;;;;;16.67;14.00;;;;;22.02;41.44;100255.33;110248;1264;19274;-49
2022/05/30 10:15:23;;;;;;;;;12.00;10.00;;;;;22.01;40.96;100251.91;110292;1264;24087;-49
2022/05/30 10:17:51;;;;;;;;;13.00;12.00;;;;;22.03;40.96;100256.30;110207;1264;22030;-49
2022/05/30 10:20:18;;;;;;;;;10.00;10.00;;;;;22.02;40.53;100255.23;110240;1263;23875;-48
2022/05/30 10:28:15;;;;;;;;;16.00;13.67;;;;;22.04;40.98;100242.19;110133;1262;23116;-48
2022/05/30 10:30:43;;;;;;;;;17.67;16.67;;;;;21.99;40.60;100242.52;110167;1262;19718;-49
2022/05/30 10:33:10;;;;;;;;;56.67;40.00;;;;;21.97;40.86;100241.52;110207;1262;22471;-49
2022/05/30 10:35:37;;;;;;;;;48.00;38.00;;;;;21.99;41.08;100241.73;110252;1262;19390;-51
2022/05/30 10:38:04;;;;;;;;;46.50;36.50;;;;;22.03;41.16;100242.08;110204;1264;19596;-49
2022/05/30 10:40:32;;;;;;;;;31.33;28.00;;;;;22.03;41.35;100242.27;110164;1264;20545;-49
2022/05/30 10:42:59;;;;;;;;;33.50;30.50;;;;;21.99;41.39;100242.48;110191;1262;19133;-49
2022/05/30 10:45:26;;;;;;;;;37.00;28.50;;;;;22.09;41.51;100244.48;110204;1262;19595;-48
2022/05/30 10:47:53;;;;;;;;;2782.75;2767.25;;;;;22.16;41.52;100245.64;110112;1264;20252;-47
2022/05/30 10:50:21;;;;;;;;;4439.67;4439.67;;;;;22.25;42.65;100248.19;110112;1263;19231;-45
2022/05/30 10:52:48;;;;;;;;;4428.33;4428.33;;;;;22.37;43.20;100249.83;110281;1264;24217;-50
2022/05/30 10:55:15;;;;;;;;;4439.67;4439.67;;;;;22.45;43.16;100254.21;110199;1262;20328;-47
2022/05/30 10:57:42;;;;;;;;;276.75;232.75;;;;;22.41;42.59;100258.89;110215;1262;23050;-50
2022/05/30 11:00:09;;;;;;;;;124.00;107.00;;;;;22.26;41.24;100259.16;110196;1264;19776;-48
2022/05/30 11:02:37;;;;;;;;;224.75;183.25;;;;;22.17;40.71;100263.33;110274;1264;22107;-48
2022/05/30 11:05:04;;;;;;;;;174.50;152.00;;;;;22.17;41.01;100268.20;110236;1264;19103;-48
2022/05/30 11:07:31;;;;;;;;;63.67;50.33;;;;;22.17;41.07;100265.85;110322;1264;21369;-47
2022/05/30 11:09:58;;;;;;;;;52.33;44.00;;;;;22.12;40.69;100265.17;110180;1264;20545;-50
2022/05/30 11:12:25;;;;;;;;;54.33;44.67;;;;;22.03;40.68;100265.41;110135;1264;19228;-49
2022/05/30 11:14:53;;;;;;;;;49.67;42.33;;;;;21.88;40.67;100266.64;110192;1264;19680;-49